createdAt,value
2022-09-09T00:04:21.944Z,97906.41
2022-09-09T00:09:29.407Z,97902.19
2022-09-09T00:14:45.923Z,97903.78
2022-09-09T00:20:13.335Z,97895.34
2022-09-09T00:25:52.606Z,97896.34
2022-09-09T00:30:56.222Z,97896.78
2022-09-09T00:35:59.598Z,97886.50
2022-09-09T00:41:15.777Z,97893.56
2022-09-09T00:46:36.027Z,97888.53
2022-09-09T00:51:37.952Z,97894.22
2022-09-09T00:57:17.949Z,97901.28
2022-09-09T01:02:31.707Z,97906.16
2022-09-09T01:07:33.766Z,97904.53
2022-09-09T01:12:43.029Z,97899.50
2022-09-09T01:18:12.727Z,97897.69
2022-09-09T01:23:40.463Z,97901.13
2022-09-09T01:34:32.703Z,97888.66
2022-09-09T01:39:36.132Z,97889.03
2022-09-09T01:44:42.702Z,97885.00
2022-09-09T01:49:45.094Z,97887.84
2022-09-09T01:54:56.795Z,97880.19
2022-09-09T02:00:21.496Z,97872.53
2022-09-09T02:05:40.720Z,97875.38
2022-09-09T02:11:02.862Z,97879.81
2022-09-09T02:16:42.670Z,97879.81
2022-09-09T02:21:46.802Z,97885.06
2022-09-09T02:26:53.871Z,97878.81
2022-09-09T02:32:01.136Z,97887.47
2022-09-09T02:37:10.754Z,97883.03
2022-09-09T02:42:16.017Z,97884.06
2022-09-09T02:47:56.127Z,97881.44
2022-09-09T02:53:08.774Z,97889.72
2022-09-09T02:58:19.717Z,97890.72
2022-09-09T03:03:31.439Z,97889.13
2022-09-09T03:08:36.021Z,97896.41
2022-09-09T03:13:39.087Z,97896.41
2022-09-09T03:18:41.410Z,97897.41
2022-09-09T03:23:43.337Z,97900.25
2022-09-09T03:28:45.866Z,97893.63
2022-09-09T03:33:51.011Z,97892.00
2022-09-09T03:38:56.044Z,97886.78
2022-09-09T03:44:00.273Z,97888.59
2022-09-09T03:49:06.077Z,97892.00
2022-09-09T03:54:11.163Z,97893.03
2022-09-09T03:59:15.394Z,97895.66
2022-09-09T04:04:18.923Z,97879.13
2022-09-09T04:09:20.858Z,97889.59
2022-09-09T04:14:24.711Z,97889.59
2022-09-09T04:19:26.850Z,97890.41
2022-09-09T04:24:30.215Z,97892.00
2022-09-09T04:29:34.736Z,97901.69
2022-09-09T04:34:37.390Z,97893.03
2022-09-09T04:39:39.396Z,97901.69
2022-09-09T04:44:42.298Z,97905.13
2022-09-09T04:49:44.278Z,97904.09
2022-09-09T04:54:46.999Z,97901.47
2022-09-09T04:59:49.110Z,97903.91
2022-09-09T05:04:51.183Z,97903.69
2022-09-09T05:09:53.332Z,97909.72
2022-09-09T05:14:55.316Z,97907.31
2022-09-09T05:19:57.963Z,97915.97
2022-09-09T05:25:02.218Z,97915.19
2022-09-09T05:30:05.658Z,97913.78
2022-09-09T05:35:08.052Z,97926.47
2022-09-09T05:40:12.201Z,97940.75
2022-09-09T05:45:15.479Z,97938.09
2022-09-09T05:50:17.546Z,97942.69
2022-09-09T05:55:19.518Z,97948.69
2022-09-09T06:00:22.667Z,97955.72
2022-09-09T06:05:25.822Z,97946.56
2022-09-09T06:10:27.953Z,97940.84
2022-09-09T06:15:31.690Z,97946.44
2022-09-09T06:20:33.646Z,97947.53
2022-09-09T06:25:35.578Z,97941.81
2022-09-09T06:30:37.967Z,97944.59
2022-09-09T06:35:40.367Z,97947.78
2022-09-09T06:40:42.437Z,97953.63
2022-09-09T06:45:46.123Z,97948.16
2022-09-09T06:50:48.553Z,97951.75
2022-09-09T06:55:50.900Z,97947.22
2022-09-09T07:00:52.876Z,97952.78
2022-09-09T07:05:57.264Z,97947.72
2022-09-09T07:11:12.240Z,97948.81
2022-09-09T07:16:18.941Z,97945.09
2022-09-09T07:21:22.663Z,97944.38
2022-09-09T07:26:28.368Z,97938.94
2022-09-09T07:31:33.781Z,97938.97
2022-09-09T07:36:39.165Z,97940.97
2022-09-09T07:41:45.962Z,97947.06
2022-09-09T07:46:49.802Z,97943.41
2022-09-09T07:51:56.264Z,97945.16
2022-09-09T07:57:00.293Z,97952.44
2022-09-09T08:02:05.336Z,97964.00
2022-09-09T08:07:10.136Z,97965.25
2022-09-09T08:12:19.636Z,97967.19
2022-09-09T08:17:21.689Z,97965.59
2022-09-09T08:22:25.611Z,97974.41
2022-09-09T08:27:27.601Z,97980.91
2022-09-09T08:32:30.467Z,97978.28
2022-09-09T08:37:33.001Z,97978.06
2022-09-09T08:42:53.334Z,97984.81
2022-09-09T08:48:16.564Z,97982.44
2022-09-09T08:53:31.457Z,97988.38
2022-09-09T08:58:36.426Z,97987.34
2022-09-09T09:04:26.839Z,97988.28
2022-09-09T09:10:09.165Z,97995.03
2022-09-09T09:15:32.753Z,98006.69
2022-09-09T09:20:43.647Z,98015.53
2022-09-09T09:25:46.546Z,98009.84
2022-09-09T09:31:04.810Z,98009.66
2022-09-09T09:36:09.593Z,97996.97
2022-09-09T09:41:13.510Z,98002.56
2022-09-09T09:46:24.999Z,97996.13
2022-09-09T09:51:32.949Z,98002.91
2022-09-09T09:56:35.596Z,97996.84
2022-09-09T10:01:40.949Z,97990.78
2022-09-09T10:06:46.127Z,98000.06
2022-09-09T10:12:06.308Z,97992.03
2022-09-09T10:17:18.191Z,97983.56
2022-09-09T10:22:26.001Z,97976.31
2022-09-09T10:27:33.678Z,97968.06
2022-09-09T10:32:44.531Z,97965.84
2022-09-09T10:38:04.856Z,97961.34
2022-09-09T10:43:25.107Z,97954.16
2022-09-09T10:49:05.328Z,97945.19
2022-09-09T10:54:25.819Z,97948.53
2022-09-09T10:59:36.311Z,97952.94
2022-09-09T11:04:50.747Z,97936.50
2022-09-09T11:09:59.809Z,97943.97
2022-09-09T11:15:21.247Z,97953.47
2022-09-09T11:20:26.392Z,97970.94
2022-09-09T11:25:38.263Z,97948.03
2022-09-09T11:31:29.598Z,97931.41
2022-09-09T11:36:48.489Z,97934.28
2022-09-09T11:41:50.590Z,97931.09
2022-09-09T11:46:53.383Z,97925.81
2022-09-09T11:51:56.006Z,97930.47
2022-09-09T11:56:58.412Z,97933.59
2022-09-09T12:02:19.984Z,97924.44
2022-09-09T12:07:25.584Z,97924.28
2022-09-09T12:12:43.163Z,97901.88
2022-09-09T12:17:54.400Z,97899.00
2022-09-09T12:23:17.252Z,97901.72
2022-09-09T12:28:21.837Z,97893.91
2022-09-09T12:33:24.725Z,97894.06
2022-09-09T12:38:35.362Z,97886.31
2022-09-09T12:43:37.461Z,97901.72
2022-09-09T12:48:46.669Z,97892.63
2022-09-09T12:53:48.921Z,97893.13
2022-09-09T12:58:53.222Z,97886.28
2022-09-09T13:03:56.296Z,97868.84
2022-09-09T13:09:01.457Z,97857.78
2022-09-09T13:14:04.191Z,97855.81
2022-09-09T13:19:13.978Z,97860.03
2022-09-09T13:24:35.864Z,97852.59
2022-09-09T13:29:38.370Z,97848.50
2022-09-09T13:34:40.857Z,97843.50
2022-09-09T13:39:56.570Z,97842.28
2022-09-09T13:45:01.151Z,97856.31
2022-09-09T13:50:31.681Z,97856.00
2022-09-09T13:55:33.966Z,97860.16
2022-09-09T14:00:36.331Z,97853.28
2022-09-09T14:05:38.853Z,97857.13
2022-09-09T14:10:40.681Z,97860.50
2022-09-09T14:15:42.553Z,97853.56
2022-09-09T14:20:44.383Z,97844.53
2022-09-09T14:25:46.189Z,97849.31
2022-09-09T14:30:48.047Z,97835.38
2022-09-09T14:36:05.542Z,97836.00
2022-09-09T14:41:10.218Z,97831.78
2022-09-09T14:46:14.799Z,97833.63
2022-09-09T14:51:20.640Z,97836.25
2022-09-09T14:56:25.653Z,97836.66
2022-09-09T15:01:28.694Z,97841.81
2022-09-09T15:06:34.216Z,97841.41
2022-09-09T15:11:40.577Z,97840.84
2022-09-09T15:16:42.500Z,97830.53
2022-09-09T15:21:44.676Z,97832.63
2022-09-09T15:26:47.668Z,97847.41
2022-09-09T15:31:49.453Z,97853.97
2022-09-09T15:36:51.251Z,97853.38
2022-09-09T15:41:53.184Z,97862.16
2022-09-09T15:46:55.277Z,97861.03
2022-09-09T15:52:00.486Z,97838.44
2022-09-09T15:57:04.213Z,97841.63
2022-09-09T16:02:07.756Z,97846.34
2022-09-09T16:07:10.844Z,97836.84
2022-09-09T16:12:14.083Z,97840.75
2022-09-09T16:17:16.315Z,97837.78
2022-09-09T16:22:19.369Z,97844.00
2022-09-09T16:27:21.126Z,97849.22
2022-09-09T16:32:23.422Z,97852.81
2022-09-09T16:37:25.226Z,97851.22
2022-09-09T16:42:26.996Z,97851.22
2022-09-09T16:47:28.937Z,97851.69
2022-09-09T16:52:30.765Z,97870.22
2022-09-09T16:57:32.577Z,97877.09
2022-09-09T17:02:34.562Z,97874.22
2022-09-09T17:07:36.927Z,97870.22
2022-09-09T17:12:42.173Z,97875.41
2022-09-09T17:17:46.078Z,97881.63
2022-09-09T17:22:47.967Z,97886.25
2022-09-09T17:27:49.986Z,97878.47
2022-09-09T17:32:51.778Z,97891.22
2022-09-09T17:37:55.392Z,97892.38
2022-09-09T17:42:58.156Z,97895.94
2022-09-09T17:47:59.986Z,97896.06
2022-09-09T17:53:03.492Z,97921.50
2022-09-09T17:58:06.000Z,97923.22
2022-09-09T18:03:08.640Z,97927.59
2022-09-09T18:08:10.526Z,97933.31
2022-09-09T18:13:12.317Z,97935.84
2022-09-09T18:18:14.234Z,97924.97
2022-09-09T18:23:16.215Z,97927.47
2022-09-09T18:28:20.201Z,97928.41
2022-09-09T18:33:24.366Z,97936.19
2022-09-09T18:38:26.197Z,97934.69
2022-09-09T18:43:28.012Z,97944.75
2022-09-09T18:48:30.016Z,97942.19
2022-09-09T18:53:32.503Z,97939.91
2022-09-09T18:58:36.056Z,97946.50
2022-09-09T19:03:38.521Z,97955.31
2022-09-09T19:08:42.500Z,97949.69
2022-09-09T19:13:50.887Z,97945.34
2022-09-09T19:18:52.877Z,97951.28
2022-09-09T19:24:01.885Z,97953.53
2022-09-09T19:29:03.777Z,97951.59
2022-09-09T19:34:05.769Z,97956.03
2022-09-09T19:39:08.882Z,97959.69
2022-09-09T19:44:13.391Z,97953.88
2022-09-09T19:49:15.695Z,97956.50
2022-09-09T19:54:17.792Z,97956.50
2022-09-09T19:59:19.744Z,97953.28
2022-09-09T20:04:21.567Z,97961.03
2022-09-09T20:09:25.902Z,97965.72
2022-09-09T20:14:27.853Z,97973.81
2022-09-09T20:19:29.757Z,97982.38
2022-09-09T20:24:31.563Z,97985.22
2022-09-09T20:29:33.638Z,97982.81
2022-09-09T20:34:35.523Z,97982.81
2022-09-09T20:39:37.394Z,97994.94
2022-09-09T20:44:39.170Z,97992.31
2022-09-09T20:49:40.993Z,97991.06
2022-09-09T20:54:42.762Z,97990.03
2022-09-09T20:59:48.162Z,98002.38
2022-09-09T21:04:49.905Z,98006.84
2022-09-09T21:09:51.882Z,98001.00
2022-09-09T21:14:53.675Z,98001.44
2022-09-09T21:19:57.403Z,97997.22
2022-09-09T21:24:59.552Z,98001.88
2022-09-09T21:30:03.927Z,98002.09
2022-09-09T21:35:07.122Z,98011.03
2022-09-09T21:40:09.503Z,98008.25
2022-09-09T21:45:11.326Z,98010.06
2022-09-09T21:50:14.425Z,97997.16
2022-09-09T21:55:16.503Z,97992.56
2022-09-09T22:00:18.382Z,97996.84
2022-09-09T22:05:20.169Z,97998.75
2022-09-09T22:10:23.194Z,98003.84
2022-09-09T22:15:25.148Z,97994.22
2022-09-09T22:20:27.062Z,97986.41
2022-09-09T22:25:35.372Z,97985.00
2022-09-09T22:30:38.118Z,97982.25
2022-09-09T22:35:43.397Z,97980.63
2022-09-09T22:40:45.143Z,97977.00
2022-09-09T22:45:47.941Z,97972.53
2022-09-09T22:50:49.671Z,97961.22
2022-09-09T22:55:59.480Z,97962.84
2022-09-09T23:01:07.537Z,97962.03
2022-09-09T23:06:11.975Z,97945.47
2022-09-09T23:11:14.123Z,97946.50
2022-09-09T23:16:19.268Z,97944.09
2022-09-09T23:21:23.182Z,97947.94
2022-09-09T23:26:26.791Z,97943.94
2022-09-09T23:31:33.109Z,97951.66
2022-09-09T23:36:35.372Z,97958.97
2022-09-09T23:41:38.156Z,97950.94
2022-09-09T23:46:40.200Z,97957.22
2022-09-09T23:51:42.110Z,97954.00
2022-09-09T23:56:44.641Z,97955.81
